sensor_id;sensor_type;location;lat;lon;timestamp;P1;P2;P0
72329;PMS5003;60660;52.076;5.110;2023-03-20T00:01:00;36;30;
72329;PMS5003;60660;52.076;5.110;2023-03-20T00:03:25;40;35;
72329;PMS5003;60660;52.076;5.110;2023-03-20T00:05:51;30;30;
72329;PMS5003;60660;52.076;5.110;2023-03-20T00:08:16;29;28;
72329;PMS5003;60660;52.076;5.110;2023-03-20T00:10:42;29;27;
72329;PMS5003;60660;52.076;5.110;2023-03-20T00:13:07;39;33;
72329;PMS5003;60660;52.076;5.110;2023-03-20T00:15:32;30;27;
72329;PMS5003;60660;52.076;5.110;2023-03-20T00:17:57;28;26;
72329;PMS5003;60660;52.076;5.110;2023-03-20T00:20:23;32;30;
72329;PMS5003;60660;52.076;5.110;2023-03-20T00:22:48;28;27;
72329;PMS5003;60660;52.076;5.110;2023-03-20T00:25:14;25;24;
72329;PMS5003;60660;52.076;5.110;2023-03-20T00:27:38;24;23;
72329;PMS5003;60660;52.076;5.110;2023-03-20T00:30:04;28;27;
72329;PMS5003;60660;52.076;5.110;2023-03-20T00:30:18;28;27;
72329;PMS5003;60660;52.076;5.110;2023-03-20T00:32:41;23;20;
72329;PMS5003;60660;52.076;5.110;2023-03-20T00:35:11;22;20;
72329;PMS5003;60660;52.076;5.110;2023-03-20T00:37:32;21;19;
72329;PMS5003;60660;52.076;5.110;2023-03-20T00:39:57;16;16;
72329;PMS5003;60660;52.076;5.110;2023-03-20T00:42:23;23;17;
72329;PMS5003;60660;52.076;5.110;2023-03-20T00:44:48;17;17;
72329;PMS5003;60660;52.076;5.110;2023-03-20T00:47:15;16;14;
72329;PMS5003;60660;52.076;5.110;2023-03-20T00:49:39;14;13;
72329;PMS5003;60660;52.076;5.110;2023-03-20T00:52:04;13;13;
72329;PMS5003;60660;52.076;5.110;2023-03-20T00:54:30;15;14;
72329;PMS5003;60660;52.076;5.110;2023-03-20T00:56:55;15;13;
72329;PMS5003;60660;52.076;5.110;2023-03-20T00:59:20;11;10;
72329;PMS5003;60660;52.076;5.110;2023-03-20T01:01:45;9;9;
72329;PMS5003;60660;52.076;5.110;2023-03-20T01:04:10;13;13;
72329;PMS5003;60660;52.076;5.110;2023-03-20T01:06:35;13;11;
72329;PMS5003;60660;52.076;5.110;2023-03-20T01:09:01;15;11;
72329;PMS5003;60660;52.076;5.110;2023-03-20T01:11:26;14;14;
72329;PMS5003;60660;52.076;5.110;2023-03-20T01:13:51;13;10;
72329;PMS5003;60660;52.076;5.110;2023-03-20T01:16:18;13;13;
72329;PMS5003;60660;52.076;5.110;2023-03-20T01:18:42;14;13;
72329;PMS5003;60660;52.076;5.110;2023-03-20T01:21:07;16;14;
72329;PMS5003;60660;52.076;5.110;2023-03-20T01:23:32;11;11;
72329;PMS5003;60660;52.076;5.110;2023-03-20T01:25:58;15;14;
72329;PMS5003;60660;52.076;5.110;2023-03-20T01:28:23;14;13;
72329;PMS5003;60660;52.076;5.110;2023-03-20T01:30:48;15;13;
72329;PMS5003;60660;52.076;5.110;2023-03-20T01:33:14;13;13;
72329;PMS5003;60660;52.076;5.110;2023-03-20T01:35:39;18;14;
72329;PMS5003;60660;52.076;5.110;2023-03-20T01:38:04;15;14;
72329;PMS5003;60660;52.076;5.110;2023-03-20T01:40:30;14;12;
72329;PMS5003;60660;52.076;5.110;2023-03-20T01:42:55;12;12;
72329;PMS5003;60660;52.076;5.110;2023-03-20T01:45:21;15;14;
72329;PMS5003;60660;52.076;5.110;2023-03-20T01:47:46;15;12;
72329;PMS5003;60660;52.076;5.110;2023-03-20T01:50:17;15;14;
72329;PMS5003;60660;52.076;5.110;2023-03-20T01:52:37;17;14;
72329;PMS5003;60660;52.076;5.110;2023-03-20T01:55:01;14;12;
72329;PMS5003;60660;52.076;5.110;2023-03-20T01:57:27;19;15;
72329;PMS5003;60660;52.076;5.110;2023-03-20T01:59:52;14;12;
72329;PMS5003;60660;52.076;5.110;2023-03-20T02:02:18;15;15;
72329;PMS5003;60660;52.076;5.110;2023-03-20T02:04:43;12;12;
72329;PMS5003;60660;52.076;5.110;2023-03-20T02:07:07;18;18;
72329;PMS5003;60660;52.076;5.110;2023-03-20T02:09:33;19;19;
72329;PMS5003;60660;52.076;5.110;2023-03-20T02:11:58;19;19;
72329;PMS5003;60660;52.076;5.110;2023-03-20T02:14:24;19;18;
72329;PMS5003;60660;52.076;5.110;2023-03-20T02:16:49;18;18;
72329;PMS5003;60660;52.076;5.110;2023-03-20T02:19:16;24;21;
72329;PMS5003;60660;52.076;5.110;2023-03-20T02:21:54;22;21;
72329;PMS5003;60660;52.076;5.110;2023-03-20T02:24:11;21;20;
72329;PMS5003;60660;52.076;5.110;2023-03-20T02:26:32;26;23;
72329;PMS5003;60660;52.076;5.110;2023-03-20T02:29:01;31;26;
72329;PMS5003;60660;52.076;5.110;2023-03-20T02:31:02;31;26;
72329;PMS5003;60660;52.076;5.110;2023-03-20T02:35:47;26;24;
72329;PMS5003;60660;52.076;5.110;2023-03-20T02:38:08;30;26;
72329;PMS5003;60660;52.076;5.110;2023-03-20T02:40:28;28;24;
72329;PMS5003;60660;52.076;5.110;2023-03-20T02:42:54;30;26;
72329;PMS5003;60660;52.076;5.110;2023-03-20T02:45:19;31;26;
72329;PMS5003;60660;52.076;5.110;2023-03-20T02:47:46;32;30;
72329;PMS5003;60660;52.076;5.110;2023-03-20T02:50:11;35;30;
72329;PMS5003;60660;52.076;5.110;2023-03-20T02:52:35;31;31;
72329;PMS5003;60660;52.076;5.110;2023-03-20T02:55:03;30;29;
72329;PMS5003;60660;52.076;5.110;2023-03-20T02:57:28;32;30;
72329;PMS5003;60660;52.076;5.110;2023-03-20T02:59:51;34;29;
72329;PMS5003;60660;52.076;5.110;2023-03-20T03:02:16;40;35;
72329;PMS5003;60660;52.076;5.110;2023-03-20T03:04:43;32;30;
72329;PMS5003;60660;52.076;5.110;2023-03-20T03:07:08;40;36;
72329;PMS5003;60660;52.076;5.110;2023-03-20T03:09:33;34;29;
72329;PMS5003;60660;52.076;5.110;2023-03-20T03:11:59;38;34;
72329;PMS5003;60660;52.076;5.110;2023-03-20T03:14:26;34;31;
72329;PMS5003;60660;52.076;5.110;2023-03-20T03:16:49;50;41;
72329;PMS5003;60660;52.076;5.110;2023-03-20T03:19:15;38;36;
72329;PMS5003;60660;52.076;5.110;2023-03-20T03:21:40;35;32;
72329;PMS5003;60660;52.076;5.110;2023-03-20T03:24:06;36;34;
72329;PMS5003;60660;52.076;5.110;2023-03-20T03:26:32;35;33;
72329;PMS5003;60660;52.076;5.110;2023-03-20T03:28:58;33;30;
72329;PMS5003;60660;52.076;5.110;2023-03-20T03:31:22;42;42;
72329;PMS5003;60660;52.076;5.110;2023-03-20T03:33:48;40;38;
72329;PMS5003;60660;52.076;5.110;2023-03-20T03:36:16;38;33;
72329;PMS5003;60660;52.076;5.110;2023-03-20T03:38:39;44;39;
72329;PMS5003;60660;52.076;5.110;2023-03-20T03:41:06;29;27;
72329;PMS5003;60660;52.076;5.110;2023-03-20T03:43:29;34;33;
72329;PMS5003;60660;52.076;5.110;2023-03-20T03:45:55;32;29;
72329;PMS5003;60660;52.076;5.110;2023-03-20T03:48:20;31;29;
72329;PMS5003;60660;52.076;5.110;2023-03-20T03:50:46;44;36;
72329;PMS5003;60660;52.076;5.110;2023-03-20T03:53:10;30;29;
72329;PMS5003;60660;52.076;5.110;2023-03-20T03:55:36;39;33;
72329;PMS5003;60660;52.076;5.110;2023-03-20T03:58:02;33;31;
72329;PMS5003;60660;52.076;5.110;2023-03-20T04:00:26;46;37;
72329;PMS5003;60660;52.076;5.110;2023-03-20T04:02:52;38;35;
72329;PMS5003;60660;52.076;5.110;2023-03-20T04:05:17;39;30;
72329;PMS5003;60660;52.076;5.110;2023-03-20T04:07:43;33;31;
72329;PMS5003;60660;52.076;5.110;2023-03-20T04:10:09;37;32;
72329;PMS5003;60660;52.076;5.110;2023-03-20T04:12:35;38;36;
72329;PMS5003;60660;52.076;5.110;2023-03-20T04:15:00;39;32;
72329;PMS5003;60660;52.076;5.110;2023-03-20T04:17:25;34;33;
72329;PMS5003;60660;52.076;5.110;2023-03-20T04:19:51;38;34;
72329;PMS5003;60660;52.076;5.110;2023-03-20T04:22:16;36;35;
72329;PMS5003;60660;52.076;5.110;2023-03-20T04:24:41;44;40;
72329;PMS5003;60660;52.076;5.110;2023-03-20T04:27:07;36;36;
72329;PMS5003;60660;52.076;5.110;2023-03-20T04:29:32;37;37;
72329;PMS5003;60660;52.076;5.110;2023-03-20T04:31:58;39;36;
72329;PMS5003;60660;52.076;5.110;2023-03-20T04:34:24;41;36;
72329;PMS5003;60660;52.076;5.110;2023-03-20T04:36:49;45;37;
72329;PMS5003;60660;52.076;5.110;2023-03-20T04:39:15;45;43;
72329;PMS5003;60660;52.076;5.110;2023-03-20T04:41:40;49;45;
72329;PMS5003;60660;52.076;5.110;2023-03-20T04:44:05;46;39;
72329;PMS5003;60660;52.076;5.110;2023-03-20T04:46:31;48;44;
72329;PMS5003;60660;52.076;5.110;2023-03-20T04:48:56;54;50;
72329;PMS5003;60660;52.076;5.110;2023-03-20T04:51:21;47;44;
72329;PMS5003;60660;52.076;5.110;2023-03-20T04:53:46;41;39;
72329;PMS5003;60660;52.076;5.110;2023-03-20T04:56:16;49;46;
72329;PMS5003;60660;52.076;5.110;2023-03-20T04:58:37;56;49;
72329;PMS5003;60660;52.076;5.110;2023-03-20T05:01:02;48;44;
72329;PMS5003;60660;52.076;5.110;2023-03-20T05:03:27;50;46;
72329;PMS5003;60660;52.076;5.110;2023-03-20T05:05:53;51;46;
72329;PMS5003;60660;52.076;5.110;2023-03-20T05:08:19;52;49;
72329;PMS5003;60660;52.076;5.110;2023-03-20T05:10:44;49;47;
72329;PMS5003;60660;52.076;5.110;2023-03-20T05:13:10;53;50;
72329;PMS5003;60660;52.076;5.110;2023-03-20T05:15:35;53;53;
72329;PMS5003;60660;52.076;5.110;2023-03-20T05:18:01;59;54;
72329;PMS5003;60660;52.076;5.110;2023-03-20T05:20:26;48;45;
72329;PMS5003;60660;52.076;5.110;2023-03-20T05:22:51;45;43;
72329;PMS5003;60660;52.076;5.110;2023-03-20T05:25:17;47;46;
72329;PMS5003;60660;52.076;5.110;2023-03-20T05:27:43;46;45;
72329;PMS5003;60660;52.076;5.110;2023-03-20T05:30:08;53;48;
72329;PMS5003;60660;52.076;5.110;2023-03-20T05:32:33;52;51;
72329;PMS5003;60660;52.076;5.110;2023-03-20T05:34:58;47;45;
72329;PMS5003;60660;52.076;5.110;2023-03-20T05:37:24;55;52;
72329;PMS5003;60660;52.076;5.110;2023-03-20T05:39:50;51;49;
72329;PMS5003;60660;52.076;5.110;2023-03-20T05:42:15;55;52;
72329;PMS5003;60660;52.076;5.110;2023-03-20T05:44:40;48;45;
72329;PMS5003;60660;52.076;5.110;2023-03-20T05:47:05;52;47;
72329;PMS5003;60660;52.076;5.110;2023-03-20T05:49:31;51;49;
72329;PMS5003;60660;52.076;5.110;2023-03-20T05:51:56;51;48;
72329;PMS5003;60660;52.076;5.110;2023-03-20T05:54:21;52;50;
72329;PMS5003;60660;52.076;5.110;2023-03-20T05:56:47;52;51;
72329;PMS5003;60660;52.076;5.110;2023-03-20T05:59:12;56;51;
72329;PMS5003;60660;52.076;5.110;2023-03-20T06:01:37;51;48;
72329;PMS5003;60660;52.076;5.110;2023-03-20T06:04:02;52;50;
72329;PMS5003;60660;52.076;5.110;2023-03-20T06:06:28;53;51;
72329;PMS5003;60660;52.076;5.110;2023-03-20T06:08:53;51;47;
72329;PMS5003;60660;52.076;5.110;2023-03-20T06:11:19;44;44;
72329;PMS5003;60660;52.076;5.110;2023-03-20T06:13:44;55;52;
72329;PMS5003;60660;52.076;5.110;2023-03-20T06:16:10;48;44;
72329;PMS5003;60660;52.076;5.110;2023-03-20T06:18:35;47;46;
72329;PMS5003;60660;52.076;5.110;2023-03-20T06:21:00;55;52;
72329;PMS5003;60660;52.076;5.110;2023-03-20T06:23:26;58;55;
72329;PMS5003;60660;52.076;5.110;2023-03-20T06:25:52;51;48;
72329;PMS5003;60660;52.076;5.110;2023-03-20T06:28:17;51;47;
72329;PMS5003;60660;52.076;5.110;2023-03-20T06:30:42;52;48;
72329;PMS5003;60660;52.076;5.110;2023-03-20T06:33:08;48;45;
72329;PMS5003;60660;52.076;5.110;2023-03-20T06:35:33;49;47;
72329;PMS5003;60660;52.076;5.110;2023-03-20T06:37:58;56;50;
72329;PMS5003;60660;52.076;5.110;2023-03-20T06:40:24;51;47;
72329;PMS5003;60660;52.076;5.110;2023-03-20T06:42:49;47;43;
72329;PMS5003;60660;52.076;5.110;2023-03-20T06:45:16;47;43;
72329;PMS5003;60660;52.076;5.110;2023-03-20T06:47:40;52;46;
72329;PMS5003;60660;52.076;5.110;2023-03-20T06:50:06;44;43;
72329;PMS5003;60660;52.076;5.110;2023-03-20T06:52:31;43;40;
72329;PMS5003;60660;52.076;5.110;2023-03-20T06:54:56;41;39;
72329;PMS5003;60660;52.076;5.110;2023-03-20T06:57:22;46;45;
72329;PMS5003;60660;52.076;5.110;2023-03-20T06:59:47;46;43;
72329;PMS5003;60660;52.076;5.110;2023-03-20T07:02:12;46;43;
72329;PMS5003;60660;52.076;5.110;2023-03-20T07:04:38;46;43;
72329;PMS5003;60660;52.076;5.110;2023-03-20T07:07:03;40;37;
72329;PMS5003;60660;52.076;5.110;2023-03-20T07:09:28;42;40;
72329;PMS5003;60660;52.076;5.110;2023-03-20T07:11:53;43;43;
72329;PMS5003;60660;52.076;5.110;2023-03-20T07:14:19;45;42;
72329;PMS5003;60660;52.076;5.110;2023-03-20T07:16:45;43;41;
72329;PMS5003;60660;52.076;5.110;2023-03-20T07:19:10;46;42;
72329;PMS5003;60660;52.076;5.110;2023-03-20T07:21:35;36;36;
72329;PMS5003;60660;52.076;5.110;2023-03-20T07:24:00;38;38;
72329;PMS5003;60660;52.076;5.110;2023-03-20T07:26:26;39;35;
72329;PMS5003;60660;52.076;5.110;2023-03-20T07:28:51;38;36;
72329;PMS5003;60660;52.076;5.110;2023-03-20T07:31:18;44;42;
72329;PMS5003;60660;52.076;5.110;2023-03-20T07:33:41;37;34;
72329;PMS5003;60660;52.076;5.110;2023-03-20T07:36:07;41;38;
72329;PMS5003;60660;52.076;5.110;2023-03-20T07:38:34;41;37;
72329;PMS5003;60660;52.076;5.110;2023-03-20T07:40:58;42;37;
72329;PMS5003;60660;52.076;5.110;2023-03-20T07:43:24;36;32;
72329;PMS5003;60660;52.076;5.110;2023-03-20T07:45:49;32;30;
72329;PMS5003;60660;52.076;5.110;2023-03-20T07:48:15;41;35;
72329;PMS5003;60660;52.076;5.110;2023-03-20T07:50:39;35;33;
72329;PMS5003;60660;52.076;5.110;2023-03-20T07:53:05;39;32;
72329;PMS5003;60660;52.076;5.110;2023-03-20T07:55:30;37;33;
72329;PMS5003;60660;52.076;5.110;2023-03-20T07:57:56;31;29;
72329;PMS5003;60660;52.076;5.110;2023-03-20T08:00:22;33;32;
72329;PMS5003;60660;52.076;5.110;2023-03-20T08:02:46;29;29;
72329;PMS5003;60660;52.076;5.110;2023-03-20T08:05:12;34;31;
72329;PMS5003;60660;52.076;5.110;2023-03-20T08:07:38;29;27;
72329;PMS5003;60660;52.076;5.110;2023-03-20T08:10:04;28;28;
72329;PMS5003;60660;52.076;5.110;2023-03-20T08:12:29;29;28;
72329;PMS5003;60660;52.076;5.110;2023-03-20T08:14:54;25;24;
72329;PMS5003;60660;52.076;5.110;2023-03-20T08:17:19;24;24;
72329;PMS5003;60660;52.076;5.110;2023-03-20T08:19:45;25;25;
72329;PMS5003;60660;52.076;5.110;2023-03-20T08:22:11;29;24;
72329;PMS5003;60660;52.076;5.110;2023-03-20T08:24:36;24;22;
72329;PMS5003;60660;52.076;5.110;2023-03-20T08:27:01;27;27;
72329;PMS5003;60660;52.076;5.110;2023-03-20T08:29:27;27;25;
72329;PMS5003;60660;52.076;5.110;2023-03-20T08:31:52;27;26;
72329;PMS5003;60660;52.076;5.110;2023-03-20T08:34:17;27;26;
72329;PMS5003;60660;52.076;5.110;2023-03-20T08:36:42;27;26;
72329;PMS5003;60660;52.076;5.110;2023-03-20T08:39:08;26;25;
72329;PMS5003;60660;52.076;5.110;2023-03-20T08:41:35;32;30;
72329;PMS5003;60660;52.076;5.110;2023-03-20T08:43:58;25;22;
72329;PMS5003;60660;52.076;5.110;2023-03-20T08:46:24;31;29;
72329;PMS5003;60660;52.076;5.110;2023-03-20T08:48:50;28;27;
72329;PMS5003;60660;52.076;5.110;2023-03-20T08:51:16;32;28;
72329;PMS5003;60660;52.076;5.110;2023-03-20T08:53:41;26;25;
72329;PMS5003;60660;52.076;5.110;2023-03-20T08:56:07;28;27;
72329;PMS5003;60660;52.076;5.110;2023-03-20T08:58:32;24;24;
72329;PMS5003;60660;52.076;5.110;2023-03-20T09:01:01;29;28;
72329;PMS5003;60660;52.076;5.110;2023-03-20T09:03:22;28;26;
72329;PMS5003;60660;52.076;5.110;2023-03-20T09:05:48;31;28;
72329;PMS5003;60660;52.076;5.110;2023-03-20T09:08:13;32;26;
72329;PMS5003;60660;52.076;5.110;2023-03-20T09:10:38;23;22;
72329;PMS5003;60660;52.076;5.110;2023-03-20T09:13:03;27;24;
72329;PMS5003;60660;52.076;5.110;2023-03-20T09:15:29;25;23;
72329;PMS5003;60660;52.076;5.110;2023-03-20T09:17:54;26;25;
72329;PMS5003;60660;52.076;5.110;2023-03-20T09:20:20;27;26;
72329;PMS5003;60660;52.076;5.110;2023-03-20T09:22:46;23;23;
72329;PMS5003;60660;52.076;5.110;2023-03-20T09:25:12;27;26;
72329;PMS5003;60660;52.076;5.110;2023-03-20T09:27:37;25;24;
72329;PMS5003;60660;52.076;5.110;2023-03-20T09:30:02;26;24;
72329;PMS5003;60660;52.076;5.110;2023-03-20T09:32:28;26;24;
72329;PMS5003;60660;52.076;5.110;2023-03-20T09:34:53;26;24;
72329;PMS5003;60660;52.076;5.110;2023-03-20T09:37:18;24;22;
72329;PMS5003;60660;52.076;5.110;2023-03-20T09:39:44;19;18;
72329;PMS5003;60660;52.076;5.110;2023-03-20T09:42:14;28;27;
72329;PMS5003;60660;52.076;5.110;2023-03-20T09:44:38;21;20;
72329;PMS5003;60660;52.076;5.110;2023-03-20T09:47:03;25;23;
72329;PMS5003;60660;52.076;5.110;2023-03-20T09:49:29;21;19;
72329;PMS5003;60660;52.076;5.110;2023-03-20T09:51:51;33;25;
72329;PMS5003;60660;52.076;5.110;2023-03-20T09:54:17;18;17;
72329;PMS5003;60660;52.076;5.110;2023-03-20T09:56:41;24;22;
72329;PMS5003;60660;52.076;5.110;2023-03-20T09:59:06;25;22;
72329;PMS5003;60660;52.076;5.110;2023-03-20T10:01:32;21;19;
72329;PMS5003;60660;52.076;5.110;2023-03-20T10:03:57;22;19;
72329;PMS5003;60660;52.076;5.110;2023-03-20T10:06:22;22;21;
72329;PMS5003;60660;52.076;5.110;2023-03-20T10:08:47;17;16;
72329;PMS5003;60660;52.076;5.110;2023-03-20T10:11:18;22;21;
72329;PMS5003;60660;52.076;5.110;2023-03-20T10:13:42;24;22;
72329;PMS5003;60660;52.076;5.110;2023-03-20T10:16:06;21;20;
72329;PMS5003;60660;52.076;5.110;2023-03-20T10:18:29;18;18;
72329;PMS5003;60660;52.076;5.110;2023-03-20T10:20:55;23;19;
72329;PMS5003;60660;52.076;5.110;2023-03-20T10:23:22;24;23;
72329;PMS5003;60660;52.076;5.110;2023-03-20T10:25:46;25;23;
72329;PMS5003;60660;52.076;5.110;2023-03-20T10:28:11;26;23;
72329;PMS5003;60660;52.076;5.110;2023-03-20T10:30:40;23;21;
72329;PMS5003;60660;52.076;5.110;2023-03-20T10:33:06;20;19;
72329;PMS5003;60660;52.076;5.110;2023-03-20T10:35:27;20;20;
72329;PMS5003;60660;52.076;5.110;2023-03-20T10:38:00;26;24;
72329;PMS5003;60660;52.076;5.110;2023-03-20T10:40:23;26;24;
72329;PMS5003;60660;52.076;5.110;2023-03-20T10:42:44;30;28;
72329;PMS5003;60660;52.076;5.110;2023-03-20T10:45:12;32;31;
72329;PMS5003;60660;52.076;5.110;2023-03-20T10:47:35;33;30;
72329;PMS5003;60660;52.076;5.110;2023-03-20T10:50:02;34;32;
72329;PMS5003;60660;52.076;5.110;2023-03-20T10:52:27;37;34;
72329;PMS5003;60660;52.076;5.110;2023-03-20T10:54:52;31;29;
72329;PMS5003;60660;52.076;5.110;2023-03-20T10:57:17;31;30;
72329;PMS5003;60660;52.076;5.110;2023-03-20T10:59:42;40;39;
72329;PMS5003;60660;52.076;5.110;2023-03-20T11:02:08;37;33;
72329;PMS5003;60660;52.076;5.110;2023-03-20T11:04:33;38;35;
72329;PMS5003;60660;52.076;5.110;2023-03-20T11:06:59;33;31;
72329;PMS5003;60660;52.076;5.110;2023-03-20T11:09:24;38;34;
72329;PMS5003;60660;52.076;5.110;2023-03-20T11:11:51;37;35;
72329;PMS5003;60660;52.076;5.110;2023-03-20T11:14:16;45;39;
72329;PMS5003;60660;52.076;5.110;2023-03-20T11:16:39;38;38;
72329;PMS5003;60660;52.076;5.110;2023-03-20T11:19:06;47;42;
72329;PMS5003;60660;52.076;5.110;2023-03-20T11:21:30;42;38;
72329;PMS5003;60660;52.076;5.110;2023-03-20T11:23:56;45;42;
72329;PMS5003;60660;52.076;5.110;2023-03-20T11:26:27;44;43;
72329;PMS5003;60660;52.076;5.110;2023-03-20T11:28:48;45;44;
72329;PMS5003;60660;52.076;5.110;2023-03-20T11:31:15;40;39;
72329;PMS5003;60660;52.076;5.110;2023-03-20T11:33:38;38;38;
72329;PMS5003;60660;52.076;5.110;2023-03-20T11:36:09;41;36;
72329;PMS5003;60660;52.076;5.110;2023-03-20T11:38:29;44;42;
72329;PMS5003;60660;52.076;5.110;2023-03-20T11:40:54;42;40;
72329;PMS5003;60660;52.076;5.110;2023-03-20T11:43:21;43;41;
72329;PMS5003;60660;52.076;5.110;2023-03-20T11:45:46;40;39;
72329;PMS5003;60660;52.076;5.110;2023-03-20T11:48:13;43;42;
72329;PMS5003;60660;52.076;5.110;2023-03-20T11:50:37;47;46;
72329;PMS5003;60660;52.076;5.110;2023-03-20T11:53:02;43;43;
72329;PMS5003;60660;52.076;5.110;2023-03-20T11:55:28;47;46;
72329;PMS5003;60660;52.076;5.110;2023-03-20T11:57:55;49;44;
72329;PMS5003;60660;52.076;5.110;2023-03-20T12:00:19;46;45;
72329;PMS5003;60660;52.076;5.110;2023-03-20T12:02:43;45;41;
72329;PMS5003;60660;52.076;5.110;2023-03-20T12:05:40;44;43;
72329;PMS5003;60660;52.076;5.110;2023-03-20T12:07:34;47;46;
72329;PMS5003;60660;52.076;5.110;2023-03-20T12:10:00;49;46;
72329;PMS5003;60660;52.076;5.110;2023-03-20T12:12:29;48;45;
72329;PMS5003;60660;52.076;5.110;2023-03-20T12:14:52;46;45;
72329;PMS5003;60660;52.076;5.110;2023-03-20T12:17:24;48;44;
72329;PMS5003;60660;52.076;5.110;2023-03-20T12:19:42;47;46;
72329;PMS5003;60660;52.076;5.110;2023-03-20T12:22:13;50;46;
72329;PMS5003;60660;52.076;5.110;2023-03-20T12:24:35;43;41;
72329;PMS5003;60660;52.076;5.110;2023-03-20T12:27:01;47;42;
72329;PMS5003;60660;52.076;5.110;2023-03-20T12:29:26;43;40;
72329;PMS5003;60660;52.076;5.110;2023-03-20T12:31:50;40;39;
72329;PMS5003;60660;52.076;5.110;2023-03-20T12:34:16;41;39;
72329;PMS5003;60660;52.076;5.110;2023-03-20T12:36:40;41;39;
72329;PMS5003;60660;52.076;5.110;2023-03-20T12:39:08;43;40;
72329;PMS5003;60660;52.076;5.110;2023-03-20T12:41:33;42;40;
72329;PMS5003;60660;52.076;5.110;2023-03-20T12:44:08;39;39;
72329;PMS5003;60660;52.076;5.110;2023-03-20T12:46:26;43;42;
72329;PMS5003;60660;52.076;5.110;2023-03-20T12:48:51;43;41;
72329;PMS5003;60660;52.076;5.110;2023-03-20T12:51:14;46;43;
72329;PMS5003;60660;52.076;5.110;2023-03-20T12:53:41;45;41;
72329;PMS5003;60660;52.076;5.110;2023-03-20T12:56:07;51;44;
72329;PMS5003;60660;52.076;5.110;2023-03-20T12:58:32;43;41;
72329;PMS5003;60660;52.076;5.110;2023-03-20T13:00:57;44;39;
72329;PMS5003;60660;52.076;5.110;2023-03-20T13:03:26;48;44;
72329;PMS5003;60660;52.076;5.110;2023-03-20T13:05:47;40;36;
72329;PMS5003;60660;52.076;5.110;2023-03-20T13:08:16;42;38;
72329;PMS5003;60660;52.076;5.110;2023-03-20T13:10:48;46;40;
72329;PMS5003;60660;52.076;5.110;2023-03-20T13:13:03;42;38;
72329;PMS5003;60660;52.076;5.110;2023-03-20T13:15:30;40;37;
72329;PMS5003;60660;52.076;5.110;2023-03-20T13:17:54;43;42;
72329;PMS5003;60660;52.076;5.110;2023-03-20T13:20:20;43;42;
72329;PMS5003;60660;52.076;5.110;2023-03-20T13:22:46;41;37;
72329;PMS5003;60660;52.076;5.110;2023-03-20T13:25:22;44;40;
72329;PMS5003;60660;52.076;5.110;2023-03-20T13:27:34;39;37;
72329;PMS5003;60660;52.076;5.110;2023-03-20T13:29:59;38;37;
72329;PMS5003;60660;52.076;5.110;2023-03-20T13:32:26;43;40;
72329;PMS5003;60660;52.076;5.110;2023-03-20T13:34:52;50;47;
72329;PMS5003;60660;52.076;5.110;2023-03-20T13:37:16;43;37;
72329;PMS5003;60660;52.076;5.110;2023-03-20T13:39:41;47;44;
72329;PMS5003;60660;52.076;5.110;2023-03-20T13:42:08;47;43;
72329;PMS5003;60660;52.076;5.110;2023-03-20T13:44:31;45;41;
72329;PMS5003;60660;52.076;5.110;2023-03-20T13:46:59;43;41;
72329;PMS5003;60660;52.076;5.110;2023-03-20T13:49:24;48;43;
72329;PMS5003;60660;52.076;5.110;2023-03-20T13:51:50;46;44;
72329;PMS5003;60660;52.076;5.110;2023-03-20T13:54:14;44;42;
72329;PMS5003;60660;52.076;5.110;2023-03-20T13:56:40;39;38;
72329;PMS5003;60660;52.076;5.110;2023-03-20T13:59:09;45;43;
72329;PMS5003;60660;52.076;5.110;2023-03-20T14:01:32;44;40;
72329;PMS5003;60660;52.076;5.110;2023-03-20T14:03:55;40;37;
72329;PMS5003;60660;52.076;5.110;2023-03-20T14:06:41;38;37;
72329;PMS5003;60660;52.076;5.110;2023-03-20T14:08:46;37;37;
72329;PMS5003;60660;52.076;5.110;2023-03-20T14:11:12;38;35;
72329;PMS5003;60660;52.076;5.110;2023-03-20T14:13:36;40;40;
72329;PMS5003;60660;52.076;5.110;2023-03-20T14:16:01;32;30;
72329;PMS5003;60660;52.076;5.110;2023-03-20T14:18:26;41;39;
72329;PMS5003;60660;52.076;5.110;2023-03-20T14:20:53;42;39;
72329;PMS5003;60660;52.076;5.110;2023-03-20T14:23:18;39;36;
72329;PMS5003;60660;52.076;5.110;2023-03-20T14:25:43;40;39;
72329;PMS5003;60660;52.076;5.110;2023-03-20T14:28:21;38;38;
72329;PMS5003;60660;52.076;5.110;2023-03-20T14:30:36;35;32;
72329;PMS5003;60660;52.076;5.110;2023-03-20T14:33:04;38;36;
72329;PMS5003;60660;52.076;5.110;2023-03-20T14:35:26;37;37;
72329;PMS5003;60660;52.076;5.110;2023-03-20T14:37:59;38;36;
72329;PMS5003;60660;52.076;5.110;2023-03-20T14:40:17;43;41;
72329;PMS5003;60660;52.076;5.110;2023-03-20T14:42:46;46;45;
72329;PMS5003;60660;52.076;5.110;2023-03-20T14:45:40;37;36;
72329;PMS5003;60660;52.076;5.110;2023-03-20T14:47:35;40;37;
72329;PMS5003;60660;52.076;5.110;2023-03-20T14:50:01;35;34;
72329;PMS5003;60660;52.076;5.110;2023-03-20T14:52:34;38;36;
72329;PMS5003;60660;52.076;5.110;2023-03-20T14:54:51;35;34;
72329;PMS5003;60660;52.076;5.110;2023-03-20T14:57:16;34;34;
72329;PMS5003;60660;52.076;5.110;2023-03-20T14:59:40;44;39;
72329;PMS5003;60660;52.076;5.110;2023-03-20T15:02:05;37;36;
72329;PMS5003;60660;52.076;5.110;2023-03-20T15:04:33;38;37;
72329;PMS5003;60660;52.076;5.110;2023-03-20T15:06:57;35;35;
72329;PMS5003;60660;52.076;5.110;2023-03-20T15:09:21;38;33;
72329;PMS5003;60660;52.076;5.110;2023-03-20T15:11:46;37;36;
72329;PMS5003;60660;52.076;5.110;2023-03-20T15:14:12;33;33;
72329;PMS5003;60660;52.076;5.110;2023-03-20T15:16:37;42;38;
72329;PMS5003;60660;52.076;5.110;2023-03-20T15:19:04;40;37;
72329;PMS5003;60660;52.076;5.110;2023-03-20T15:21:28;40;38;
72329;PMS5003;60660;52.076;5.110;2023-03-20T15:23:53;39;38;
72329;PMS5003;60660;52.076;5.110;2023-03-20T15:26:24;42;38;
72329;PMS5003;60660;52.076;5.110;2023-03-20T15:28:44;39;38;
72329;PMS5003;60660;52.076;5.110;2023-03-20T15:31:14;42;42;
72329;PMS5003;60660;52.076;5.110;2023-03-20T15:33:35;38;37;
72329;PMS5003;60660;52.076;5.110;2023-03-20T15:36:08;39;38;
72329;PMS5003;60660;52.076;5.110;2023-03-20T15:38:27;46;45;
72329;PMS5003;60660;52.076;5.110;2023-03-20T15:40:51;42;40;
72329;PMS5003;60660;52.076;5.110;2023-03-20T15:43:17;54;47;
72329;PMS5003;60660;52.076;5.110;2023-03-20T15:45:42;50;44;
72329;PMS5003;60660;52.076;5.110;2023-03-20T15:48:10;46;44;
72329;PMS5003;60660;52.076;5.110;2023-03-20T15:50:33;49;47;
72329;PMS5003;60660;52.076;5.110;2023-03-20T15:52:58;47;44;
72329;PMS5003;60660;52.076;5.110;2023-03-20T15:55:28;38;33;
72329;PMS5003;60660;52.076;5.110;2023-03-20T15:57:49;45;43;
72329;PMS5003;60660;52.076;5.110;2023-03-20T16:00:16;46;43;
72329;PMS5003;60660;52.076;5.110;2023-03-20T16:02:39;39;38;
72329;PMS5003;60660;52.076;5.110;2023-03-20T16:05:07;48;46;